sensor_id;sensor_type;location;lat;lon;timestamp;temperature;humidity
13707;DHT22;6925;47.816;13.072;2023-06-22T00:00:03;23.20;67.80
13707;DHT22;6925;47.816;13.072;2023-06-22T00:02:34;23.20;67.90
13707;DHT22;6925;47.816;13.072;2023-06-22T00:05:01;23.20;68.20
13707;DHT22;6925;47.816;13.072;2023-06-22T00:07:28;23.20;68.30
13707;DHT22;6925;47.816;13.072;2023-06-22T00:09:55;23.10;68.30
13707;DHT22;6925;47.816;13.072;2023-06-22T00:12:22;23.10;68.30
13707;DHT22;6925;47.816;13.072;2023-06-22T00:14:50;23.10;68.30
13707;DHT22;6925;47.816;13.072;2023-06-22T00:17:17;23.10;68.40
13707;DHT22;6925;47.816;13.072;2023-06-22T00:19:46;23.00;68.30
13707;DHT22;6925;47.816;13.072;2023-06-22T00:22:18;23.00;68.40
13707;DHT22;6925;47.816;13.072;2023-06-22T00:24:53;23.00;68.30
13707;DHT22;6925;47.816;13.072;2023-06-22T00:27:20;23.00;68.30
13707;DHT22;6925;47.816;13.072;2023-06-22T00:29:47;23.00;68.40
13707;DHT22;6925;47.816;13.072;2023-06-22T00:32:16;23.00;68.50
13707;DHT22;6925;47.816;13.072;2023-06-22T00:34:44;23.00;68.30
13707;DHT22;6925;47.816;13.072;2023-06-22T00:37:11;23.00;68.30
13707;DHT22;6925;47.816;13.072;2023-06-22T00:39:38;23.00;68.20
13707;DHT22;6925;47.816;13.072;2023-06-22T00:42:05;22.90;68.20
13707;DHT22;6925;47.816;13.072;2023-06-22T00:44:32;22.90;68.50
13707;DHT22;6925;47.816;13.072;2023-06-22T00:46:59;22.90;68.50
13707;DHT22;6925;47.816;13.072;2023-06-22T00:49:28;22.90;68.50
13707;DHT22;6925;47.816;13.072;2023-06-22T00:51:56;22.90;68.50
13707;DHT22;6925;47.816;13.072;2023-06-22T00:54:24;22.80;68.30
13707;DHT22;6925;47.816;13.072;2023-06-22T00:56:53;22.80;68.20
13707;DHT22;6925;47.816;13.072;2023-06-22T00:59:22;22.80;68.40
13707;DHT22;6925;47.816;13.072;2023-06-22T01:01:49;22.80;68.50
13707;DHT22;6925;47.816;13.072;2023-06-22T01:04:16;22.80;68.40
13707;DHT22;6925;47.816;13.072;2023-06-22T01:06:50;22.80;68.50
13707;DHT22;6925;47.816;13.072;2023-06-22T01:09:25;22.80;68.50
13707;DHT22;6925;47.816;13.072;2023-06-22T01:11:58;22.70;68.10
13707;DHT22;6925;47.816;13.072;2023-06-22T01:14:31;22.70;68.50
13707;DHT22;6925;47.816;13.072;2023-06-22T01:17:05;22.70;68.60
13707;DHT22;6925;47.816;13.072;2023-06-22T01:19:43;22.70;68.80
13707;DHT22;6925;47.816;13.072;2023-06-22T01:22:16;22.70;68.80
13707;DHT22;6925;47.816;13.072;2023-06-22T01:24:52;22.70;69.00
13707;DHT22;6925;47.816;13.072;2023-06-22T01:27:32;22.70;68.70
13707;DHT22;6925;47.816;13.072;2023-06-22T01:30:02;22.60;68.80
13707;DHT22;6925;47.816;13.072;2023-06-22T01:32:32;22.60;69.00
13707;DHT22;6925;47.816;13.072;2023-06-22T01:35:01;22.60;69.20
13707;DHT22;6925;47.816;13.072;2023-06-22T01:37:30;22.60;69.40
13707;DHT22;6925;47.816;13.072;2023-06-22T01:39:59;22.60;69.40
13707;DHT22;6925;47.816;13.072;2023-06-22T01:42:27;22.60;69.30
13707;DHT22;6925;47.816;13.072;2023-06-22T01:44:55;22.60;69.30
13707;DHT22;6925;47.816;13.072;2023-06-22T01:47:24;22.60;69.20
13707;DHT22;6925;47.816;13.072;2023-06-22T01:49:53;22.60;69.50
13707;DHT22;6925;47.816;13.072;2023-06-22T01:52:20;22.60;69.60
13707;DHT22;6925;47.816;13.072;2023-06-22T01:54:48;22.60;69.80
13707;DHT22;6925;47.816;13.072;2023-06-22T01:57:15;22.60;69.80
13707;DHT22;6925;47.816;13.072;2023-06-22T01:59:48;22.60;69.80
13707;DHT22;6925;47.816;13.072;2023-06-22T02:02:19;22.50;69.90
13707;DHT22;6925;47.816;13.072;2023-06-22T02:04:57;22.50;69.90
13707;DHT22;6925;47.816;13.072;2023-06-22T02:07:29;22.50;70.00
13707;DHT22;6925;47.816;13.072;2023-06-22T02:09:59;22.50;70.10
13707;DHT22;6925;47.816;13.072;2023-06-22T02:12:28;22.50;69.90
13707;DHT22;6925;47.816;13.072;2023-06-22T02:14:57;22.40;69.90
13707;DHT22;6925;47.816;13.072;2023-06-22T02:17:26;22.40;70.10
13707;DHT22;6925;47.816;13.072;2023-06-22T02:19:55;22.40;70.10
13707;DHT22;6925;47.816;13.072;2023-06-22T02:22:22;22.40;70.00
13707;DHT22;6925;47.816;13.072;2023-06-22T02:24:49;22.40;69.90
13707;DHT22;6925;47.816;13.072;2023-06-22T02:27:16;22.40;70.20
13707;DHT22;6925;47.816;13.072;2023-06-22T02:29:43;22.40;70.10
13707;DHT22;6925;47.816;13.072;2023-06-22T02:32:10;22.30;70.20
13707;DHT22;6925;47.816;13.072;2023-06-22T02:34:37;22.30;70.40
13707;DHT22;6925;47.816;13.072;2023-06-22T02:37:05;22.30;70.30
13707;DHT22;6925;47.816;13.072;2023-06-22T02:39:32;22.30;70.40
13707;DHT22;6925;47.816;13.072;2023-06-22T02:42:00;22.30;70.40
13707;DHT22;6925;47.816;13.072;2023-06-22T02:44:27;22.20;70.40
13707;DHT22;6925;47.816;13.072;2023-06-22T02:46:54;22.20;70.50
13707;DHT22;6925;47.816;13.072;2023-06-22T02:49:22;22.10;70.70
13707;DHT22;6925;47.816;13.072;2023-06-22T02:51:49;22.20;70.80
13707;DHT22;6925;47.816;13.072;2023-06-22T02:54:17;22.20;70.60
13707;DHT22;6925;47.816;13.072;2023-06-22T02:56:44;22.10;70.70
13707;DHT22;6925;47.816;13.072;2023-06-22T02:59:11;22.10;70.80
13707;DHT22;6925;47.816;13.072;2023-06-22T03:01:38;22.10;71.00
13707;DHT22;6925;47.816;13.072;2023-06-22T03:04:06;22.10;71.10
13707;DHT22;6925;47.816;13.072;2023-06-22T03:06:34;22.10;71.30
13707;DHT22;6925;47.816;13.072;2023-06-22T03:09:02;22.10;72.00
13707;DHT22;6925;47.816;13.072;2023-06-22T03:11:32;22.20;71.20
13707;DHT22;6925;47.816;13.072;2023-06-22T03:13:59;22.10;71.20
13707;DHT22;6925;47.816;13.072;2023-06-22T03:16:26;22.10;71.40
13707;DHT22;6925;47.816;13.072;2023-06-22T03:18:53;22.10;71.30
13707;DHT22;6925;47.816;13.072;2023-06-22T03:21:22;22.10;71.30
13707;DHT22;6925;47.816;13.072;2023-06-22T03:23:49;22.00;71.40
13707;DHT22;6925;47.816;13.072;2023-06-22T03:26:17;22.00;71.40
13707;DHT22;6925;47.816;13.072;2023-06-22T03:28:46;22.00;71.50
13707;DHT22;6925;47.816;13.072;2023-06-22T03:31:13;22.00;72.10
13707;DHT22;6925;47.816;13.072;2023-06-22T03:33:40;22.00;71.60
13707;DHT22;6925;47.816;13.072;2023-06-22T03:36:07;22.00;71.60
13707;DHT22;6925;47.816;13.072;2023-06-22T03:38:35;22.10;71.50
13707;DHT22;6925;47.816;13.072;2023-06-22T03:41:02;22.10;71.50
13707;DHT22;6925;47.816;13.072;2023-06-22T03:43:29;22.00;71.60
13707;DHT22;6925;47.816;13.072;2023-06-22T03:45:57;22.00;71.60
13707;DHT22;6925;47.816;13.072;2023-06-22T03:48:24;22.00;71.60
13707;DHT22;6925;47.816;13.072;2023-06-22T03:50:51;22.00;71.90
13707;DHT22;6925;47.816;13.072;2023-06-22T03:53:18;22.00;71.60
13707;DHT22;6925;47.816;13.072;2023-06-22T03:55:49;22.00;72.60
13707;DHT22;6925;47.816;13.072;2023-06-22T03:58:17;22.00;71.70
13707;DHT22;6925;47.816;13.072;2023-06-22T04:00:45;22.00;71.70
13707;DHT22;6925;47.816;13.072;2023-06-22T04:03:13;22.00;71.70
13707;DHT22;6925;47.816;13.072;2023-06-22T04:05:41;22.00;71.80
13707;DHT22;6925;47.816;13.072;2023-06-22T04:08:08;22.00;71.60
13707;DHT22;6925;47.816;13.072;2023-06-22T04:10:35;22.00;71.70
13707;DHT22;6925;47.816;13.072;2023-06-22T04:13:03;22.00;71.80
13707;DHT22;6925;47.816;13.072;2023-06-22T04:15:30;22.00;71.70
13707;DHT22;6925;47.816;13.072;2023-06-22T04:17:57;22.00;71.70
13707;DHT22;6925;47.816;13.072;2023-06-22T04:20:25;22.00;71.80
13707;DHT22;6925;47.816;13.072;2023-06-22T04:22:53;22.10;72.10
13707;DHT22;6925;47.816;13.072;2023-06-22T04:25:20;22.10;72.00
13707;DHT22;6925;47.816;13.072;2023-06-22T04:27:48;22.10;72.20
13707;DHT22;6925;47.816;13.072;2023-06-22T04:30:15;22.20;72.20
13707;DHT22;6925;47.816;13.072;2023-06-22T04:32:42;22.20;72.30
13707;DHT22;6925;47.816;13.072;2023-06-22T04:35:10;22.20;72.10
13707;DHT22;6925;47.816;13.072;2023-06-22T04:37:38;22.20;73.10
13707;DHT22;6925;47.816;13.072;2023-06-22T04:40:06;22.30;72.70
13707;DHT22;6925;47.816;13.072;2023-06-22T04:42:34;22.30;72.90
13707;DHT22;6925;47.816;13.072;2023-06-22T04:45:03;22.30;73.10
13707;DHT22;6925;47.816;13.072;2023-06-22T04:47:30;22.30;73.10
13707;DHT22;6925;47.816;13.072;2023-06-22T04:49:57;22.40;73.20
13707;DHT22;6925;47.816;13.072;2023-06-22T04:52:24;22.40;73.00
13707;DHT22;6925;47.816;13.072;2023-06-22T04:54:52;22.30;73.30
13707;DHT22;6925;47.816;13.072;2023-06-22T04:57:21;22.30;73.90
13707;DHT22;6925;47.816;13.072;2023-06-22T04:59:58;22.40;73.90
13707;DHT22;6925;47.816;13.072;2023-06-22T05:02:42;22.40;73.70
13707;DHT22;6925;47.816;13.072;2023-06-22T05:05:10;22.40;73.00
13707;DHT22;6925;47.816;13.072;2023-06-22T05:07:40;22.40;72.70
13707;DHT22;6925;47.816;13.072;2023-06-22T05:10:11;22.40;72.70
13707;DHT22;6925;47.816;13.072;2023-06-22T05:12:38;22.40;72.40
13707;DHT22;6925;47.816;13.072;2023-06-22T05:15:07;22.40;72.80
13707;DHT22;6925;47.816;13.072;2023-06-22T05:17:34;22.40;73.20
13707;DHT22;6925;47.816;13.072;2023-06-22T05:20:01;22.50;73.30
13707;DHT22;6925;47.816;13.072;2023-06-22T05:22:32;22.60;73.30
13707;DHT22;6925;47.816;13.072;2023-06-22T05:24:59;22.60;73.10
13707;DHT22;6925;47.816;13.072;2023-06-22T05:27:27;22.60;73.10
13707;DHT22;6925;47.816;13.072;2023-06-22T05:29:54;22.70;73.30
13707;DHT22;6925;47.816;13.072;2023-06-22T05:32:21;22.70;72.60
13707;DHT22;6925;47.816;13.072;2023-06-22T05:34:48;22.70;72.90
13707;DHT22;6925;47.816;13.072;2023-06-22T05:37:15;22.80;73.10
13707;DHT22;6925;47.816;13.072;2023-06-22T05:39:42;22.80;73.50
13707;DHT22;6925;47.816;13.072;2023-06-22T05:42:09;22.90;72.20
13707;DHT22;6925;47.816;13.072;2023-06-22T05:44:38;22.80;71.60
13707;DHT22;6925;47.816;13.072;2023-06-22T05:47:06;22.80;71.80
13707;DHT22;6925;47.816;13.072;2023-06-22T05:49:33;22.90;71.80
13707;DHT22;6925;47.816;13.072;2023-06-22T05:52:00;23.00;71.70
13707;DHT22;6925;47.816;13.072;2023-06-22T05:54:28;23.00;72.00
13707;DHT22;6925;47.816;13.072;2023-06-22T05:56:55;23.20;72.20
13707;DHT22;6925;47.816;13.072;2023-06-22T05:59:22;23.20;72.70
13707;DHT22;6925;47.816;13.072;2023-06-22T06:01:50;23.30;71.60
13707;DHT22;6925;47.816;13.072;2023-06-22T06:04:17;23.30;71.40
13707;DHT22;6925;47.816;13.072;2023-06-22T06:06:45;23.30;70.90
13707;DHT22;6925;47.816;13.072;2023-06-22T06:09:12;23.30;71.60
13707;DHT22;6925;47.816;13.072;2023-06-22T06:11:40;23.30;70.90
13707;DHT22;6925;47.816;13.072;2023-06-22T06:14:07;23.30;71.90
13707;DHT22;6925;47.816;13.072;2023-06-22T06:16:34;23.40;71.20
13707;DHT22;6925;47.816;13.072;2023-06-22T06:19:02;23.40;71.60
13707;DHT22;6925;47.816;13.072;2023-06-22T06:21:29;23.40;70.40
13707;DHT22;6925;47.816;13.072;2023-06-22T06:23:56;23.40;71.30
13707;DHT22;6925;47.816;13.072;2023-06-22T06:26:24;23.50;71.20
13707;DHT22;6925;47.816;13.072;2023-06-22T06:28:55;23.50;71.10
13707;DHT22;6925;47.816;13.072;2023-06-22T06:31:22;23.50;70.30
13707;DHT22;6925;47.816;13.072;2023-06-22T06:33:50;23.50;70.10
13707;DHT22;6925;47.816;13.072;2023-06-22T06:36:18;23.60;70.50
13707;DHT22;6925;47.816;13.072;2023-06-22T06:38:45;23.60;69.70
13707;DHT22;6925;47.816;13.072;2023-06-22T06:41:14;23.60;69.90
13707;DHT22;6925;47.816;13.072;2023-06-22T06:43:41;23.60;70.20
13707;DHT22;6925;47.816;13.072;2023-06-22T06:46:09;23.70;70.70
13707;DHT22;6925;47.816;13.072;2023-06-22T06:48:36;23.70;69.40
13707;DHT22;6925;47.816;13.072;2023-06-22T06:51:03;23.70;68.50
13707;DHT22;6925;47.816;13.072;2023-06-22T06:53:31;23.70;68.80
13707;DHT22;6925;47.816;13.072;2023-06-22T06:55:58;23.70;70.40
13707;DHT22;6925;47.816;13.072;2023-06-22T06:58:26;23.80;69.70
13707;DHT22;6925;47.816;13.072;2023-06-22T07:00:53;23.90;69.40
13707;DHT22;6925;47.816;13.072;2023-06-22T07:03:20;23.90;69.90
13707;DHT22;6925;47.816;13.072;2023-06-22T07:05:48;24.00;70.10
13707;DHT22;6925;47.816;13.072;2023-06-22T07:08:15;24.00;70.30
13707;DHT22;6925;47.816;13.072;2023-06-22T07:10:43;24.10;70.50
13707;DHT22;6925;47.816;13.072;2023-06-22T07:13:10;24.20;70.30
13707;DHT22;6925;47.816;13.072;2023-06-22T07:15:38;24.20;70.00
13707;DHT22;6925;47.816;13.072;2023-06-22T07:18:05;24.30;70.30
13707;DHT22;6925;47.816;13.072;2023-06-22T07:20:32;24.30;70.10
13707;DHT22;6925;47.816;13.072;2023-06-22T07:22:59;24.40;69.90
13707;DHT22;6925;47.816;13.072;2023-06-22T07:25:26;24.50;69.70
13707;DHT22;6925;47.816;13.072;2023-06-22T07:28:02;24.60;69.40
13707;DHT22;6925;47.816;13.072;2023-06-22T07:30:30;24.70;70.10
13707;DHT22;6925;47.816;13.072;2023-06-22T07:32:57;24.70;70.20
13707;DHT22;6925;47.816;13.072;2023-06-22T07:35:29;24.70;70.80
13707;DHT22;6925;47.816;13.072;2023-06-22T07:37:56;24.70;70.00
13707;DHT22;6925;47.816;13.072;2023-06-22T07:40:23;24.70;70.10
13707;DHT22;6925;47.816;13.072;2023-06-22T07:42:50;24.70;70.60
13707;DHT22;6925;47.816;13.072;2023-06-22T07:45:20;24.80;70.70
13707;DHT22;6925;47.816;13.072;2023-06-22T07:47:47;24.80;70.30
13707;DHT22;6925;47.816;13.072;2023-06-22T07:50:14;24.80;70.00
13707;DHT22;6925;47.816;13.072;2023-06-22T07:52:41;24.90;70.40
13707;DHT22;6925;47.816;13.072;2023-06-22T07:55:08;24.90;71.00
13707;DHT22;6925;47.816;13.072;2023-06-22T07:57:35;24.90;70.00
13707;DHT22;6925;47.816;13.072;2023-06-22T08:00:05;25.00;69.50
13707;DHT22;6925;47.816;13.072;2023-06-22T08:02:41;25.00;69.60
13707;DHT22;6925;47.816;13.072;2023-06-22T08:05:09;25.10;70.10
13707;DHT22;6925;47.816;13.072;2023-06-22T08:07:37;25.10;70.30
13707;DHT22;6925;47.816;13.072;2023-06-22T08:10:05;25.20;70.00
13707;DHT22;6925;47.816;13.072;2023-06-22T08:12:32;25.30;70.20
13707;DHT22;6925;47.816;13.072;2023-06-22T08:14:59;25.30;70.30
13707;DHT22;6925;47.816;13.072;2023-06-22T08:17:26;25.40;70.60
13707;DHT22;6925;47.816;13.072;2023-06-22T08:19:55;25.50;70.00
13707;DHT22;6925;47.816;13.072;2023-06-22T08:22:22;25.50;69.20
13707;DHT22;6925;47.816;13.072;2023-06-22T08:24:49;25.60;69.10
13707;DHT22;6925;47.816;13.072;2023-06-22T08:27:16;25.70;68.30
13707;DHT22;6925;47.816;13.072;2023-06-22T08:29:46;25.70;68.40
13707;DHT22;6925;47.816;13.072;2023-06-22T08:32:15;25.80;66.70
13707;DHT22;6925;47.816;13.072;2023-06-22T08:34:42;25.80;66.80
13707;DHT22;6925;47.816;13.072;2023-06-22T08:37:11;25.80;67.00
13707;DHT22;6925;47.816;13.072;2023-06-22T08:39:38;25.90;67.30
13707;DHT22;6925;47.816;13.072;2023-06-22T08:42:06;25.90;67.50
13707;DHT22;6925;47.816;13.072;2023-06-22T08:44:33;26.00;66.70
13707;DHT22;6925;47.816;13.072;2023-06-22T08:47:00;26.10;65.80
13707;DHT22;6925;47.816;13.072;2023-06-22T08:49:27;26.20;66.30
13707;DHT22;6925;47.816;13.072;2023-06-22T08:51:54;26.30;65.60
13707;DHT22;6925;47.816;13.072;2023-06-22T08:54:24;26.30;65.80
13707;DHT22;6925;47.816;13.072;2023-06-22T08:56:51;26.40;66.10
13707;DHT22;6925;47.816;13.072;2023-06-22T08:59:18;26.50;66.00
13707;DHT22;6925;47.816;13.072;2023-06-22T09:01:45;26.60;65.50
13707;DHT22;6925;47.816;13.072;2023-06-22T09:04:14;26.70;65.50
13707;DHT22;6925;47.816;13.072;2023-06-22T09:06:41;26.80;65.10
13707;DHT22;6925;47.816;13.072;2023-06-22T09:09:10;26.80;65.00
13707;DHT22;6925;47.816;13.072;2023-06-22T09:11:39;26.90;64.90
13707;DHT22;6925;47.816;13.072;2023-06-22T09:14:06;27.00;64.70
13707;DHT22;6925;47.816;13.072;2023-06-22T09:16:34;27.10;64.70
13707;DHT22;6925;47.816;13.072;2023-06-22T09:19:01;27.20;64.40
13707;DHT22;6925;47.816;13.072;2023-06-22T09:21:28;27.40;65.60
13707;DHT22;6925;47.816;13.072;2023-06-22T09:23:55;27.50;64.20
13707;DHT22;6925;47.816;13.072;2023-06-22T09:26:22;27.60;65.00
13707;DHT22;6925;47.816;13.072;2023-06-22T09:28:50;27.70;65.00
13707;DHT22;6925;47.816;13.072;2023-06-22T09:31:18;27.80;64.00
13707;DHT22;6925;47.816;13.072;2023-06-22T09:33:51;28.00;64.30
13707;DHT22;6925;47.816;13.072;2023-06-22T09:36:19;28.20;63.40
13707;DHT22;6925;47.816;13.072;2023-06-22T09:38:47;28.30;62.40
13707;DHT22;6925;47.816;13.072;2023-06-22T09:41:14;28.40;62.20
13707;DHT22;6925;47.816;13.072;2023-06-22T09:43:41;28.50;63.00
13707;DHT22;6925;47.816;13.072;2023-06-22T09:46:10;28.60;62.50
13707;DHT22;6925;47.816;13.072;2023-06-22T09:48:37;28.80;63.00
13707;DHT22;6925;47.816;13.072;2023-06-22T09:51:04;29.00;62.50
13707;DHT22;6925;47.816;13.072;2023-06-22T09:53:31;29.20;61.90
13707;DHT22;6925;47.816;13.072;2023-06-22T09:56:00;29.30;61.40
13707;DHT22;6925;47.816;13.072;2023-06-22T09:58:27;29.40;62.00
13707;DHT22;6925;47.816;13.072;2023-06-22T10:00:54;29.50;60.40
13707;DHT22;6925;47.816;13.072;2023-06-22T10:03:22;29.60;60.50
13707;DHT22;6925;47.816;13.072;2023-06-22T10:05:50;29.80;58.60
13707;DHT22;6925;47.816;13.072;2023-06-22T10:08:17;29.90;57.80
13707;DHT22;6925;47.816;13.072;2023-06-22T10:10:44;30.10;58.50
13707;DHT22;6925;47.816;13.072;2023-06-22T10:13:11;30.10;57.70
13707;DHT22;6925;47.816;13.072;2023-06-22T10:15:38;30.40;59.50
13707;DHT22;6925;47.816;13.072;2023-06-22T10:18:05;30.50;58.40
13707;DHT22;6925;47.816;13.072;2023-06-22T10:20:34;30.60;57.00
13707;DHT22;6925;47.816;13.072;2023-06-22T10:23:01;30.70;56.30
13707;DHT22;6925;47.816;13.072;2023-06-22T10:25:28;30.80;55.90
13707;DHT22;6925;47.816;13.072;2023-06-22T10:27:55;30.80;56.40
13707;DHT22;6925;47.816;13.072;2023-06-22T10:30:22;30.90;56.10
13707;DHT22;6925;47.816;13.072;2023-06-22T10:32:50;30.90;56.50
13707;DHT22;6925;47.816;13.072;2023-06-22T10:35:17;31.00;57.30
13707;DHT22;6925;47.816;13.072;2023-06-22T10:37:46;31.00;56.60
13707;DHT22;6925;47.816;13.072;2023-06-22T10:40:14;31.10;56.90
13707;DHT22;6925;47.816;13.072;2023-06-22T10:42:41;31.10;56.30
13707;DHT22;6925;47.816;13.072;2023-06-22T10:45:09;31.10;56.40
13707;DHT22;6925;47.816;13.072;2023-06-22T10:47:36;31.10;57.00
13707;DHT22;6925;47.816;13.072;2023-06-22T10:50:05;31.20;55.70
13707;DHT22;6925;47.816;13.072;2023-06-22T10:52:32;31.20;55.30
13707;DHT22;6925;47.816;13.072;2023-06-22T10:55:00;31.20;53.30
13707;DHT22;6925;47.816;13.072;2023-06-22T10:57:28;31.10;54.30
13707;DHT22;6925;47.816;13.072;2023-06-22T10:59:55;31.10;55.30
13707;DHT22;6925;47.816;13.072;2023-06-22T11:02:22;31.20;54.90
13707;DHT22;6925;47.816;13.072;2023-06-22T11:04:49;31.20;54.00
13707;DHT22;6925;47.816;13.072;2023-06-22T11:07:16;31.30;54.40
13707;DHT22;6925;47.816;13.072;2023-06-22T11:09:43;31.40;54.90
13707;DHT22;6925;47.816;13.072;2023-06-22T11:12:12;31.50;55.10
13707;DHT22;6925;47.816;13.072;2023-06-22T11:14:39;31.50;54.70
13707;DHT22;6925;47.816;13.072;2023-06-22T11:17:06;31.50;54.80
13707;DHT22;6925;47.816;13.072;2023-06-22T11:19:33;31.60;55.30
13707;DHT22;6925;47.816;13.072;2023-06-22T11:22:00;31.60;56.00
13707;DHT22;6925;47.816;13.072;2023-06-22T11:24:27;31.70;55.70
13707;DHT22;6925;47.816;13.072;2023-06-22T11:26:54;31.80;56.00
13707;DHT22;6925;47.816;13.072;2023-06-22T11:29:22;31.90;56.90
13707;DHT22;6925;47.816;13.072;2023-06-22T11:31:49;32.00;53.80
13707;DHT22;6925;47.816;13.072;2023-06-22T11:34:16;32.20;54.30
13707;DHT22;6925;47.816;13.072;2023-06-22T11:36:44;32.20;54.30
13707;DHT22;6925;47.816;13.072;2023-06-22T11:39:13;32.10;53.70
13707;DHT22;6925;47.816;13.072;2023-06-22T11:41:40;32.00;54.30
13707;DHT22;6925;47.816;13.072;2023-06-22T11:44:08;32.00;54.30
13707;DHT22;6925;47.816;13.072;2023-06-22T11:46:37;32.10;55.00
13707;DHT22;6925;47.816;13.072;2023-06-22T11:49:04;32.20;54.80
13707;DHT22;6925;47.816;13.072;2023-06-22T11:51:31;32.30;54.60
13707;DHT22;6925;47.816;13.072;2023-06-22T11:53:58;32.40;54.90
13707;DHT22;6925;47.816;13.072;2023-06-22T11:56:25;32.60;55.40
13707;DHT22;6925;47.816;13.072;2023-06-22T11:58:53;32.80;54.40
13707;DHT22;6925;47.816;13.072;2023-06-22T12:01:20;32.90;54.60
13707;DHT22;6925;47.816;13.072;2023-06-22T12:03:49;33.10;54.00
13707;DHT22;6925;47.816;13.072;2023-06-22T12:06:17;33.30;53.30
13707;DHT22;6925;47.816;13.072;2023-06-22T12:08:44;33.30;53.10
13707;DHT22;6925;47.816;13.072;2023-06-22T12:11:11;33.20;53.10
13707;DHT22;6925;47.816;13.072;2023-06-22T12:13:38;33.20;53.30
13707;DHT22;6925;47.816;13.072;2023-06-22T12:16:05;33.20;53.10
13707;DHT22;6925;47.816;13.072;2023-06-22T12:18:33;33.20;53.30
13707;DHT22;6925;47.816;13.072;2023-06-22T12:21:01;33.30;53.30
13707;DHT22;6925;47.816;13.072;2023-06-22T12:23:28;33.70;52.80
13707;DHT22;6925;47.816;13.072;2023-06-22T12:25:55;33.80;53.30
13707;DHT22;6925;47.816;13.072;2023-06-22T12:28:22;34.00;52.50
13707;DHT22;6925;47.816;13.072;2023-06-22T12:30:50;34.00;52.30
13707;DHT22;6925;47.816;13.072;2023-06-22T12:33:17;34.10;52.90
13707;DHT22;6925;47.816;13.072;2023-06-22T12:35:45;34.30;52.60
13707;DHT22;6925;47.816;13.072;2023-06-22T12:38:16;34.30;51.30
13707;DHT22;6925;47.816;13.072;2023-06-22T12:40:43;34.30;51.90
13707;DHT22;6925;47.816;13.072;2023-06-22T12:43:10;34.40;51.80
13707;DHT22;6925;47.816;13.072;2023-06-22T12:45:37;34.50;51.50
13707;DHT22;6925;47.816;13.072;2023-06-22T12:48:05;34.60;51.40
13707;DHT22;6925;47.816;13.072;2023-06-22T12:50:32;34.70;51.60
13707;DHT22;6925;47.816;13.072;2023-06-22T12:52:59;34.90;52.20
13707;DHT22;6925;47.816;13.072;2023-06-22T12:55:29;35.30;51.40
13707;DHT22;6925;47.816;13.072;2023-06-22T12:57:56;35.40;51.30
13707;DHT22;6925;47.816;13.072;2023-06-22T13:00:23;35.40;50.30
13707;DHT22;6925;47.816;13.072;2023-06-22T13:02:50;35.40;49.20
13707;DHT22;6925;47.816;13.072;2023-06-22T13:05:19;35.50;49.60
13707;DHT22;6925;47.816;13.072;2023-06-22T13:07:46;35.60;49.20
13707;DHT22;6925;47.816;13.072;2023-06-22T13:10:14;35.80;49.30
13707;DHT22;6925;47.816;13.072;2023-06-22T13:12:42;35.90;48.60
13707;DHT22;6925;47.816;13.072;2023-06-22T13:15:09;36.20;49.40
13707;DHT22;6925;47.816;13.072;2023-06-22T13:17:36;36.50;47.70
13707;DHT22;6925;47.816;13.072;2023-06-22T13:20:04;36.70;47.80
13707;DHT22;6925;47.816;13.072;2023-06-22T13:22:33;36.80;46.90
13707;DHT22;6925;47.816;13.072;2023-06-22T13:25:06;36.90;47.30
13707;DHT22;6925;47.816;13.072;2023-06-22T13:27:35;37.00;46.40
13707;DHT22;6925;47.816;13.072;2023-06-22T13:30:05;37.00;46.80
13707;DHT22;6925;47.816;13.072;2023-06-22T13:32:32;36.90;46.40
13707;DHT22;6925;47.816;13.072;2023-06-22T13:34:59;37.00;46.00
13707;DHT22;6925;47.816;13.072;2023-06-22T13:37:26;37.10;45.70
13707;DHT22;6925;47.816;13.072;2023-06-22T13:39:53;37.10;45.50
13707;DHT22;6925;47.816;13.072;2023-06-22T13:42:21;37.40;45.70
13707;DHT22;6925;47.816;13.072;2023-06-22T13:44:48;37.60;45.50
13707;DHT22;6925;47.816;13.072;2023-06-22T13:47:17;37.80;45.20
13707;DHT22;6925;47.816;13.072;2023-06-22T13:49:44;38.00;45.30
13707;DHT22;6925;47.816;13.072;2023-06-22T13:52:11;38.20;43.30
13707;DHT22;6925;47.816;13.072;2023-06-22T13:54:38;38.20;44.20
13707;DHT22;6925;47.816;13.072;2023-06-22T13:57:06;38.20;43.80
13707;DHT22;6925;47.816;13.072;2023-06-22T13:59:33;38.30;43.90
13707;DHT22;6925;47.816;13.072;2023-06-22T14:02:00;38.40;42.60
13707;DHT22;6925;47.816;13.072;2023-06-22T14:04:28;38.50;41.90
13707;DHT22;6925;47.816;13.072;2023-06-22T14:06:55;38.60;42.20
13707;DHT22;6925;47.816;13.072;2023-06-22T14:09:23;38.60;42.00
13707;DHT22;6925;47.816;13.072;2023-06-22T14:11:50;38.50;42.40
13707;DHT22;6925;47.816;13.072;2023-06-22T14:14:17;38.40;41.30
13707;DHT22;6925;47.816;13.072;2023-06-22T14:16:44;38.30;42.10
13707;DHT22;6925;47.816;13.072;2023-06-22T14:19:11;38.30;41.00
13707;DHT22;6925;47.816;13.072;2023-06-22T14:21:39;38.30;41.40
13707;DHT22;6925;47.816;13.072;2023-06-22T14:24:06;38.20;41.80
13707;DHT22;6925;47.816;13.072;2023-06-22T14:26:33;38.20;41.50
13707;DHT22;6925;47.816;13.072;2023-06-22T14:29:00;38.10;41.70
13707;DHT22;6925;47.816;13.072;2023-06-22T14:31:27;38.10;41.60
13707;DHT22;6925;47.816;13.072;2023-06-22T14:33:54;38.00;42.10
13707;DHT22;6925;47.816;13.072;2023-06-22T14:36:22;38.00;42.00
13707;DHT22;6925;47.816;13.072;2023-06-22T14:38:50;38.00;42.00
13707;DHT22;6925;47.816;13.072;2023-06-22T14:41:17;37.80;42.10
13707;DHT22;6925;47.816;13.072;2023-06-22T14:43:44;37.80;42.20
13707;DHT22;6925;47.816;13.072;2023-06-22T14:46:12;37.80;42.70
13707;DHT22;6925;47.816;13.072;2023-06-22T14:48:39;37.80;42.10
13707;DHT22;6925;47.816;13.072;2023-06-22T14:51:07;37.60;42.10
13707;DHT22;6925;47.816;13.072;2023-06-22T14:53:34;37.50;42.30
13707;DHT22;6925;47.816;13.072;2023-06-22T14:56:03;37.40;42.40
13707;DHT22;6925;47.816;13.072;2023-06-22T14:58:30;37.30;42.60
13707;DHT22;6925;47.816;13.072;2023-06-22T15:00:59;37.20;42.40
13707;DHT22;6925;47.816;13.072;2023-06-22T15:03:26;37.10;42.70
13707;DHT22;6925;47.816;13.072;2023-06-22T15:05:56;37.10;43.30
13707;DHT22;6925;47.816;13.072;2023-06-22T15:08:23;37.10;43.50
13707;DHT22;6925;47.816;13.072;2023-06-22T15:10:51;37.10;43.20
13707;DHT22;6925;47.816;13.072;2023-06-22T15:13:20;37.00;42.50
13707;DHT22;6925;47.816;13.072;2023-06-22T15:15:48;36.70;41.80
13707;DHT22;6925;47.816;13.072;2023-06-22T15:18:16;36.60;42.30
13707;DHT22;6925;47.816;13.072;2023-06-22T15:20:43;36.60;43.30
13707;DHT22;6925;47.816;13.072;2023-06-22T15:23:11;36.70;43.20
13707;DHT22;6925;47.816;13.072;2023-06-22T15:25:38;36.80;43.20
13707;DHT22;6925;47.816;13.072;2023-06-22T15:28:06;36.90;43.10
13707;DHT22;6925;47.816;13.072;2023-06-22T15:30:34;36.90;42.70
13707;DHT22;6925;47.816;13.072;2023-06-22T15:33:01;37.00;42.90